sensor_id;sensor_type;location;lat;lon;timestamp;temperature;humidity
19279;DHT22;9773;47.062;15.446;2023-02-01T00:01:44;0.90;99.60
19279;DHT22;9773;47.062;15.446;2023-02-01T00:04:10;0.90;99.60
19279;DHT22;9773;47.062;15.446;2023-02-01T00:06:36;1.00;99.90
19279;DHT22;9773;47.062;15.446;2023-02-01T00:09:02;1.00;99.80
19279;DHT22;9773;47.062;15.446;2023-02-01T00:11:28;0.90;99.90
19279;DHT22;9773;47.062;15.446;2023-02-01T00:13:54;0.90;99.90
19279;DHT22;9773;47.062;15.446;2023-02-01T00:16:26;0.90;99.90
19279;DHT22;9773;47.062;15.446;2023-02-01T00:18:56;0.90;99.90
19279;DHT22;9773;47.062;15.446;2023-02-01T00:21:22;0.90;99.90
19279;DHT22;9773;47.062;15.446;2023-02-01T00:23:48;0.90;99.90
19279;DHT22;9773;47.062;15.446;2023-02-01T00:26:22;0.80;99.90
19279;DHT22;9773;47.062;15.446;2023-02-01T00:28:51;0.80;99.90
19279;DHT22;9773;47.062;15.446;2023-02-01T00:31:17;0.90;99.90
19279;DHT22;9773;47.062;15.446;2023-02-01T00:33:42;1.00;99.90
19279;DHT22;9773;47.062;15.446;2023-02-01T00:36:08;1.00;99.90
19279;DHT22;9773;47.062;15.446;2023-02-01T00:38:37;1.00;99.90
19279;DHT22;9773;47.062;15.446;2023-02-01T00:41:11;0.90;99.90
19279;DHT22;9773;47.062;15.446;2023-02-01T00:43:37;1.00;99.90
19279;DHT22;9773;47.062;15.446;2023-02-01T00:46:03;1.00;99.90
19279;DHT22;9773;47.062;15.446;2023-02-01T00:48:29;1.00;99.90
19279;DHT22;9773;47.062;15.446;2023-02-01T00:51:01;0.90;99.90
19279;DHT22;9773;47.062;15.446;2023-02-01T00:53:28;1.00;99.90
19279;DHT22;9773;47.062;15.446;2023-02-01T00:55:54;0.90;99.90
19279;DHT22;9773;47.062;15.446;2023-02-01T00:58:20;0.90;99.90
19279;DHT22;9773;47.062;15.446;2023-02-01T01:00:45;0.90;99.90
19279;DHT22;9773;47.062;15.446;2023-02-01T01:03:12;0.90;99.90
19279;DHT22;9773;47.062;15.446;2023-02-01T01:05:45;0.90;99.90
19279;DHT22;9773;47.062;15.446;2023-02-01T01:08:11;0.90;99.90
19279;DHT22;9773;47.062;15.446;2023-02-01T01:10:38;0.80;99.90
19279;DHT22;9773;47.062;15.446;2023-02-01T01:13:03;0.80;99.90
19279;DHT22;9773;47.062;15.446;2023-02-01T01:15:30;0.90;99.90
19279;DHT22;9773;47.062;15.446;2023-02-01T01:17:55;1.00;99.90
19279;DHT22;9773;47.062;15.446;2023-02-01T01:20:21;1.00;99.90
19279;DHT22;9773;47.062;15.446;2023-02-01T01:22:47;0.90;99.90
19279;DHT22;9773;47.062;15.446;2023-02-01T01:25:14;0.90;99.90
19279;DHT22;9773;47.062;15.446;2023-02-01T01:27:40;0.90;99.90
19279;DHT22;9773;47.062;15.446;2023-02-01T01:30:06;0.90;99.90
19279;DHT22;9773;47.062;15.446;2023-02-01T01:32:33;0.90;99.90
19279;DHT22;9773;47.062;15.446;2023-02-01T01:34:58;0.80;99.90
19279;DHT22;9773;47.062;15.446;2023-02-01T01:37:24;0.80;99.90
19279;DHT22;9773;47.062;15.446;2023-02-01T01:39:50;0.80;99.90
19279;DHT22;9773;47.062;15.446;2023-02-01T01:42:16;0.70;99.90
19279;DHT22;9773;47.062;15.446;2023-02-01T01:45:16;0.80;99.90
19279;DHT22;9773;47.062;15.446;2023-02-01T01:47:48;0.80;99.90
19279;DHT22;9773;47.062;15.446;2023-02-01T01:50:18;0.90;99.90
19279;DHT22;9773;47.062;15.446;2023-02-01T01:52:47;0.90;99.90
19279;DHT22;9773;47.062;15.446;2023-02-01T01:55:15;0.90;99.90
19279;DHT22;9773;47.062;15.446;2023-02-01T01:57:45;0.80;99.90
19279;DHT22;9773;47.062;15.446;2023-02-01T02:00:16;0.80;99.90
19279;DHT22;9773;47.062;15.446;2023-02-01T02:02:45;0.80;99.90
19279;DHT22;9773;47.062;15.446;2023-02-01T02:05:12;0.90;99.90
19279;DHT22;9773;47.062;15.446;2023-02-01T02:07:45;0.90;99.90
19279;DHT22;9773;47.062;15.446;2023-02-01T02:10:12;0.90;99.90
19279;DHT22;9773;47.062;15.446;2023-02-01T02:12:42;0.80;99.90
19279;DHT22;9773;47.062;15.446;2023-02-01T02:15:11;0.80;99.90
19279;DHT22;9773;47.062;15.446;2023-02-01T02:18:08;0.80;99.90
19279;DHT22;9773;47.062;15.446;2023-02-01T02:30:02;0.70;99.90
19279;DHT22;9773;47.062;15.446;2023-02-01T02:37:52;0.50;99.90
19279;DHT22;9773;47.062;15.446;2023-02-01T02:40:34;0.50;99.90
19279;DHT22;9773;47.062;15.446;2023-02-01T02:43:22;0.50;99.90
19279;DHT22;9773;47.062;15.446;2023-02-01T02:46:40;0.60;99.90
19279;DHT22;9773;47.062;15.446;2023-02-01T02:49:49;0.50;99.90
19279;DHT22;9773;47.062;15.446;2023-02-01T02:52:39;0.40;99.90
19279;DHT22;9773;47.062;15.446;2023-02-01T02:55:27;0.50;99.90
19279;DHT22;9773;47.062;15.446;2023-02-01T02:57:56;0.40;99.90
19279;DHT22;9773;47.062;15.446;2023-02-01T03:00:42;0.40;99.90
19279;DHT22;9773;47.062;15.446;2023-02-01T03:03:27;0.40;99.90
19279;DHT22;9773;47.062;15.446;2023-02-01T03:06:16;0.40;99.90
19279;DHT22;9773;47.062;15.446;2023-02-01T03:08:44;0.40;99.90
19279;DHT22;9773;47.062;15.446;2023-02-01T03:11:14;0.40;99.90
19279;DHT22;9773;47.062;15.446;2023-02-01T03:13:56;0.50;99.90
19279;DHT22;9773;47.062;15.446;2023-02-01T03:16:27;0.60;99.90
19279;DHT22;9773;47.062;15.446;2023-02-01T03:24:39;0.50;99.90
19279;DHT22;9773;47.062;15.446;2023-02-01T03:32:24;0.50;99.90
19279;DHT22;9773;47.062;15.446;2023-02-01T03:34:51;0.40;99.90
19279;DHT22;9773;47.062;15.446;2023-02-01T03:37:26;0.60;99.90
19279;DHT22;9773;47.062;15.446;2023-02-01T03:40:02;0.60;99.90
19279;DHT22;9773;47.062;15.446;2023-02-01T03:42:43;0.60;99.90
19279;DHT22;9773;47.062;15.446;2023-02-01T03:45:28;0.70;99.90
19279;DHT22;9773;47.062;15.446;2023-02-01T03:47:59;0.60;99.90
19279;DHT22;9773;47.062;15.446;2023-02-01T03:50:26;0.70;99.90
19279;DHT22;9773;47.062;15.446;2023-02-01T03:53:02;0.60;99.90
19279;DHT22;9773;47.062;15.446;2023-02-01T03:55:30;0.70;99.90
19279;DHT22;9773;47.062;15.446;2023-02-01T03:58:12;0.70;99.90
19279;DHT22;9773;47.062;15.446;2023-02-01T04:00:39;0.70;99.90
19279;DHT22;9773;47.062;15.446;2023-02-01T04:03:06;0.60;99.90
19279;DHT22;9773;47.062;15.446;2023-02-01T04:05:33;0.60;99.90
19279;DHT22;9773;47.062;15.446;2023-02-01T04:07:59;0.70;99.90
19279;DHT22;9773;47.062;15.446;2023-02-01T04:10:25;0.70;99.90
19279;DHT22;9773;47.062;15.446;2023-02-01T04:12:51;0.60;99.90
19279;DHT22;9773;47.062;15.446;2023-02-01T04:15:17;0.50;99.90
19279;DHT22;9773;47.062;15.446;2023-02-01T04:17:43;0.50;99.90
19279;DHT22;9773;47.062;15.446;2023-02-01T04:20:10;0.50;99.90
19279;DHT22;9773;47.062;15.446;2023-02-01T04:22:36;0.50;99.90
19279;DHT22;9773;47.062;15.446;2023-02-01T04:25:03;0.40;99.90
19279;DHT22;9773;47.062;15.446;2023-02-01T04:27:31;0.30;99.90
19279;DHT22;9773;47.062;15.446;2023-02-01T04:29:57;0.30;99.90
19279;DHT22;9773;47.062;15.446;2023-02-01T04:32:22;0.30;99.90
19279;DHT22;9773;47.062;15.446;2023-02-01T04:34:48;0.30;99.90
19279;DHT22;9773;47.062;15.446;2023-02-01T04:37:14;0.30;99.90
19279;DHT22;9773;47.062;15.446;2023-02-01T04:39:40;0.40;99.90
19279;DHT22;9773;47.062;15.446;2023-02-01T04:42:06;0.40;99.90
19279;DHT22;9773;47.062;15.446;2023-02-01T04:44:31;0.40;99.90
19279;DHT22;9773;47.062;15.446;2023-02-01T04:46:57;0.30;99.90
19279;DHT22;9773;47.062;15.446;2023-02-01T04:49:24;0.30;99.90
19279;DHT22;9773;47.062;15.446;2023-02-01T04:51:51;0.30;99.90
19279;DHT22;9773;47.062;15.446;2023-02-01T04:54:17;0.30;99.90
19279;DHT22;9773;47.062;15.446;2023-02-01T04:56:43;0.30;99.90
19279;DHT22;9773;47.062;15.446;2023-02-01T04:59:11;0.20;99.90
19279;DHT22;9773;47.062;15.446;2023-02-01T05:01:37;0.30;99.90
19279;DHT22;9773;47.062;15.446;2023-02-01T05:04:03;0.30;99.90
19279;DHT22;9773;47.062;15.446;2023-02-01T05:06:28;0.20;99.90
19279;DHT22;9773;47.062;15.446;2023-02-01T05:08:54;0.20;99.90
19279;DHT22;9773;47.062;15.446;2023-02-01T05:11:20;0.20;99.90
19279;DHT22;9773;47.062;15.446;2023-02-01T05:14:04;0.10;99.90
19279;DHT22;9773;47.062;15.446;2023-02-01T05:16:30;0.20;99.90
19279;DHT22;9773;47.062;15.446;2023-02-01T05:18:56;0.30;99.90
19279;DHT22;9773;47.062;15.446;2023-02-01T05:21:22;0.30;99.90
19279;DHT22;9773;47.062;15.446;2023-02-01T05:23:48;0.40;99.90
19279;DHT22;9773;47.062;15.446;2023-02-01T05:26:33;0.30;99.90
19279;DHT22;9773;47.062;15.446;2023-02-01T05:28:59;0.30;99.90
19279;DHT22;9773;47.062;15.446;2023-02-01T05:31:25;0.20;99.90
19279;DHT22;9773;47.062;15.446;2023-02-01T05:33:51;0.20;99.90
19279;DHT22;9773;47.062;15.446;2023-02-01T05:36:17;0.20;99.90
19279;DHT22;9773;47.062;15.446;2023-02-01T05:38:42;0.20;99.90
19279;DHT22;9773;47.062;15.446;2023-02-01T05:41:08;0.20;99.90
19279;DHT22;9773;47.062;15.446;2023-02-01T05:43:34;0.30;99.90
19279;DHT22;9773;47.062;15.446;2023-02-01T05:46:00;0.30;99.90
19279;DHT22;9773;47.062;15.446;2023-02-01T05:48:26;0.20;99.90
19279;DHT22;9773;47.062;15.446;2023-02-01T05:50:52;0.10;99.90
19279;DHT22;9773;47.062;15.446;2023-02-01T05:53:18;0.20;99.90
19279;DHT22;9773;47.062;15.446;2023-02-01T05:55:44;0.20;99.90
19279;DHT22;9773;47.062;15.446;2023-02-01T05:58:10;0.20;99.90
19279;DHT22;9773;47.062;15.446;2023-02-01T06:00:36;0.20;99.90
19279;DHT22;9773;47.062;15.446;2023-02-01T06:03:01;0.20;99.90
19279;DHT22;9773;47.062;15.446;2023-02-01T06:05:27;0.20;99.90
19279;DHT22;9773;47.062;15.446;2023-02-01T06:07:53;0.20;99.90
19279;DHT22;9773;47.062;15.446;2023-02-01T06:10:19;0.30;99.90
19279;DHT22;9773;47.062;15.446;2023-02-01T06:12:45;0.20;99.90
19279;DHT22;9773;47.062;15.446;2023-02-01T06:15:12;0.30;99.90
19279;DHT22;9773;47.062;15.446;2023-02-01T06:17:38;0.40;99.90
19279;DHT22;9773;47.062;15.446;2023-02-01T06:20:07;0.40;99.90
19279;DHT22;9773;47.062;15.446;2023-02-01T06:22:33;0.30;99.90
19279;DHT22;9773;47.062;15.446;2023-02-01T06:24:58;0.30;99.90
19279;DHT22;9773;47.062;15.446;2023-02-01T06:27:25;0.20;99.90
19279;DHT22;9773;47.062;15.446;2023-02-01T06:29:51;0.20;99.90
19279;DHT22;9773;47.062;15.446;2023-02-01T06:32:17;0.20;99.90
19279;DHT22;9773;47.062;15.446;2023-02-01T06:34:43;0.30;99.90
19279;DHT22;9773;47.062;15.446;2023-02-01T06:37:09;0.30;99.90
19279;DHT22;9773;47.062;15.446;2023-02-01T06:39:36;0.30;99.90
19279;DHT22;9773;47.062;15.446;2023-02-01T06:42:03;0.30;99.90
19279;DHT22;9773;47.062;15.446;2023-02-01T06:44:29;0.20;99.90
19279;DHT22;9773;47.062;15.446;2023-02-01T06:46:55;0.20;99.90
19279;DHT22;9773;47.062;15.446;2023-02-01T06:49:21;0.20;99.90
19279;DHT22;9773;47.062;15.446;2023-02-01T06:51:47;0.30;99.90
19279;DHT22;9773;47.062;15.446;2023-02-01T06:54:13;0.40;99.90
19279;DHT22;9773;47.062;15.446;2023-02-01T06:56:39;0.40;99.90
19279;DHT22;9773;47.062;15.446;2023-02-01T06:59:06;0.40;99.90
19279;DHT22;9773;47.062;15.446;2023-02-01T07:01:32;0.40;99.90
19279;DHT22;9773;47.062;15.446;2023-02-01T07:03:58;0.40;99.90
19279;DHT22;9773;47.062;15.446;2023-02-01T07:06:24;0.40;99.90
19279;DHT22;9773;47.062;15.446;2023-02-01T07:08:50;0.40;99.90
19279;DHT22;9773;47.062;15.446;2023-02-01T07:11:18;0.40;99.90
19279;DHT22;9773;47.062;15.446;2023-02-01T07:13:44;0.40;99.90
19279;DHT22;9773;47.062;15.446;2023-02-01T07:16:13;0.50;99.90
19279;DHT22;9773;47.062;15.446;2023-02-01T07:18:39;0.70;99.90
19279;DHT22;9773;47.062;15.446;2023-02-01T07:21:05;0.80;99.90
19279;DHT22;9773;47.062;15.446;2023-02-01T07:23:31;0.80;99.90
19279;DHT22;9773;47.062;15.446;2023-02-01T07:26:00;0.90;99.90
19279;DHT22;9773;47.062;15.446;2023-02-01T07:28:29;1.10;99.90
19279;DHT22;9773;47.062;15.446;2023-02-01T07:30:55;1.10;99.90
19279;DHT22;9773;47.062;15.446;2023-02-01T07:33:22;1.10;99.90
19279;DHT22;9773;47.062;15.446;2023-02-01T07:35:49;1.20;99.90
19279;DHT22;9773;47.062;15.446;2023-02-01T07:38:16;1.30;99.90
19279;DHT22;9773;47.062;15.446;2023-02-01T07:40:42;1.30;99.90
19279;DHT22;9773;47.062;15.446;2023-02-01T07:43:08;1.30;99.90
19279;DHT22;9773;47.062;15.446;2023-02-01T07:45:35;1.30;99.90
19279;DHT22;9773;47.062;15.446;2023-02-01T07:48:02;1.30;99.90
19279;DHT22;9773;47.062;15.446;2023-02-01T07:50:28;1.50;99.90
19279;DHT22;9773;47.062;15.446;2023-02-01T07:52:54;1.50;99.90
19279;DHT22;9773;47.062;15.446;2023-02-01T07:55:20;1.60;99.90
19279;DHT22;9773;47.062;15.446;2023-02-01T07:57:46;1.70;99.90
19279;DHT22;9773;47.062;15.446;2023-02-01T08:00:12;1.80;99.90
19279;DHT22;9773;47.062;15.446;2023-02-01T08:03:00;1.90;99.90
19279;DHT22;9773;47.062;15.446;2023-02-01T08:05:26;2.00;99.90
19279;DHT22;9773;47.062;15.446;2023-02-01T08:07:54;2.10;99.90
19279;DHT22;9773;47.062;15.446;2023-02-01T08:10:20;2.00;99.90
19279;DHT22;9773;47.062;15.446;2023-02-01T08:12:46;2.10;99.90
19279;DHT22;9773;47.062;15.446;2023-02-01T08:15:17;2.20;99.90
19279;DHT22;9773;47.062;15.446;2023-02-01T08:17:50;2.20;99.90
19279;DHT22;9773;47.062;15.446;2023-02-01T08:20:17;2.30;99.90
19279;DHT22;9773;47.062;15.446;2023-02-01T08:22:43;2.40;99.90
19279;DHT22;9773;47.062;15.446;2023-02-01T08:25:09;2.50;99.90
19279;DHT22;9773;47.062;15.446;2023-02-01T08:27:36;2.50;99.90
19279;DHT22;9773;47.062;15.446;2023-02-01T08:30:03;2.60;99.90
19279;DHT22;9773;47.062;15.446;2023-02-01T08:32:30;2.60;99.90
19279;DHT22;9773;47.062;15.446;2023-02-01T08:34:56;2.60;99.90
19279;DHT22;9773;47.062;15.446;2023-02-01T08:37:21;2.60;99.90
19279;DHT22;9773;47.062;15.446;2023-02-01T08:39:48;2.60;99.90
19279;DHT22;9773;47.062;15.446;2023-02-01T08:42:16;2.70;99.90
19279;DHT22;9773;47.062;15.446;2023-02-01T08:45:01;2.70;99.90
19279;DHT22;9773;47.062;15.446;2023-02-01T08:47:28;2.70;99.90
19279;DHT22;9773;47.062;15.446;2023-02-01T08:49:54;2.80;99.90
19279;DHT22;9773;47.062;15.446;2023-02-01T08:52:20;2.80;99.90
19279;DHT22;9773;47.062;15.446;2023-02-01T08:54:46;2.80;99.90
19279;DHT22;9773;47.062;15.446;2023-02-01T08:57:12;3.10;99.70
19279;DHT22;9773;47.062;15.446;2023-02-01T08:59:38;3.20;99.80
19279;DHT22;9773;47.062;15.446;2023-02-01T09:02:04;3.30;99.50
19279;DHT22;9773;47.062;15.446;2023-02-01T09:04:30;3.30;99.60
19279;DHT22;9773;47.062;15.446;2023-02-01T09:06:56;3.30;99.50
19279;DHT22;9773;47.062;15.446;2023-02-01T09:09:22;3.40;99.40
19279;DHT22;9773;47.062;15.446;2023-02-01T09:11:48;3.40;99.10
19279;DHT22;9773;47.062;15.446;2023-02-01T09:14:16;3.50;99.10
19279;DHT22;9773;47.062;15.446;2023-02-01T09:16:42;3.50;99.30
19279;DHT22;9773;47.062;15.446;2023-02-01T09:19:08;3.60;99.30
19279;DHT22;9773;47.062;15.446;2023-02-01T09:21:34;3.60;99.20
19279;DHT22;9773;47.062;15.446;2023-02-01T09:24:00;3.70;99.10
19279;DHT22;9773;47.062;15.446;2023-02-01T09:26:26;3.70;98.90
19279;DHT22;9773;47.062;15.446;2023-02-01T09:28:52;3.80;98.70
19279;DHT22;9773;47.062;15.446;2023-02-01T09:31:18;3.90;98.70
19279;DHT22;9773;47.062;15.446;2023-02-01T09:33:44;4.00;98.70
19279;DHT22;9773;47.062;15.446;2023-02-01T09:36:09;4.00;98.50
19279;DHT22;9773;47.062;15.446;2023-02-01T09:38:35;4.00;98.60
19279;DHT22;9773;47.062;15.446;2023-02-01T09:41:06;4.10;98.60
19279;DHT22;9773;47.062;15.446;2023-02-01T09:46:23;4.30;98.70
19279;DHT22;9773;47.062;15.446;2023-02-01T09:48:54;4.40;98.80
19279;DHT22;9773;47.062;15.446;2023-02-01T09:51:27;4.50;98.80
19279;DHT22;9773;47.062;15.446;2023-02-01T09:54:16;4.60;98.80
19279;DHT22;9773;47.062;15.446;2023-02-01T09:56:58;4.60;98.80
19279;DHT22;9773;47.062;15.446;2023-02-01T10:02:02;4.80;98.90
19279;DHT22;9773;47.062;15.446;2023-02-01T10:04:29;4.90;98.90
19279;DHT22;9773;47.062;15.446;2023-02-01T10:07:06;5.00;98.80
19279;DHT22;9773;47.062;15.446;2023-02-01T10:13:03;5.20;98.90
19279;DHT22;9773;47.062;15.446;2023-02-01T10:26:37;5.60;98.60
19279;DHT22;9773;47.062;15.446;2023-02-01T10:29:04;5.70;98.50
19279;DHT22;9773;47.062;15.446;2023-02-01T10:31:37;5.80;98.40
19279;DHT22;9773;47.062;15.446;2023-02-01T10:34:26;5.80;98.10
19279;DHT22;9773;47.062;15.446;2023-02-01T10:39:34;6.20;97.50
19279;DHT22;9773;47.062;15.446;2023-02-01T10:42:00;6.30;97.20
19279;DHT22;9773;47.062;15.446;2023-02-01T10:44:28;6.30;96.80
19279;DHT22;9773;47.062;15.446;2023-02-01T10:46:55;6.50;96.50
19279;DHT22;9773;47.062;15.446;2023-02-01T10:49:43;6.60;96.60
19279;DHT22;9773;47.062;15.446;2023-02-01T10:52:16;6.60;96.40
19279;DHT22;9773;47.062;15.446;2023-02-01T10:54:42;6.70;96.00
19279;DHT22;9773;47.062;15.446;2023-02-01T10:57:10;6.70;95.90
19279;DHT22;9773;47.062;15.446;2023-02-01T10:59:43;6.80;95.60
19279;DHT22;9773;47.062;15.446;2023-02-01T11:02:30;7.00;95.40
19279;DHT22;9773;47.062;15.446;2023-02-01T11:05:03;7.30;95.30
19279;DHT22;9773;47.062;15.446;2023-02-01T11:07:30;7.50;95.10
19279;DHT22;9773;47.062;15.446;2023-02-01T11:09:56;7.80;94.80
19279;DHT22;9773;47.062;15.446;2023-02-01T11:12:38;8.00;94.70
19279;DHT22;9773;47.062;15.446;2023-02-01T11:15:21;8.20;94.60
19279;DHT22;9773;47.062;15.446;2023-02-01T11:17:50;8.40;94.40
19279;DHT22;9773;47.062;15.446;2023-02-01T11:22:57;8.50;94.20
19279;DHT22;9773;47.062;15.446;2023-02-01T11:25:23;8.40;94.30
19279;DHT22;9773;47.062;15.446;2023-02-01T11:27:51;8.30;94.50
19279;DHT22;9773;47.062;15.446;2023-02-01T11:30:33;8.20;94.80
19279;DHT22;9773;47.062;15.446;2023-02-01T11:33:01;8.00;95.00
19279;DHT22;9773;47.062;15.446;2023-02-01T11:35:28;8.10;94.80
19279;DHT22;9773;47.062;15.446;2023-02-01T11:37:58;8.10;94.50
19279;DHT22;9773;47.062;15.446;2023-02-01T11:40:34;8.20;94.60
19279;DHT22;9773;47.062;15.446;2023-02-01T11:45:33;8.40;94.80
19279;DHT22;9773;47.062;15.446;2023-02-01T11:48:01;8.60;94.10
19279;DHT22;9773;47.062;15.446;2023-02-01T11:55:55;8.80;94.70
19279;DHT22;9773;47.062;15.446;2023-02-01T12:03:48;9.10;90.20
19279;DHT22;9773;47.062;15.446;2023-02-01T12:06:21;9.20;87.50
19279;DHT22;9773;47.062;15.446;2023-02-01T12:09:20;9.50;84.50
19279;DHT22;9773;47.062;15.446;2023-02-01T12:12:07;9.70;82.70
19279;DHT22;9773;47.062;15.446;2023-02-01T12:20:22;9.90;79.00
19279;DHT22;9773;47.062;15.446;2023-02-01T12:36:18;10.20;72.70
19279;DHT22;9773;47.062;15.446;2023-02-01T12:45:14;10.50;71.50
19279;DHT22;9773;47.062;15.446;2023-02-01T12:50:25;10.30;70.40
19279;DHT22;9773;47.062;15.446;2023-02-01T12:52:54;10.30;69.50
19279;DHT22;9773;47.062;15.446;2023-02-01T12:56:30;10.30;69.10
19279;DHT22;9773;47.062;15.446;2023-02-01T13:01:07;10.40;68.80
19279;DHT22;9773;47.062;15.446;2023-02-01T13:03:42;10.50;68.60
19279;DHT22;9773;47.062;15.446;2023-02-01T13:06:23;10.50;69.20
19279;DHT22;9773;47.062;15.446;2023-02-01T13:11:39;10.50;69.40
19279;DHT22;9773;47.062;15.446;2023-02-01T13:17:00;10.50;69.10
19279;DHT22;9773;47.062;15.446;2023-02-01T13:19:45;10.50;68.30
19279;DHT22;9773;47.062;15.446;2023-02-01T13:22:35;10.50;68.90
19279;DHT22;9773;47.062;15.446;2023-02-01T13:25:28;10.50;69.30
19279;DHT22;9773;47.062;15.446;2023-02-01T13:27:56;10.50;69.50
19279;DHT22;9773;47.062;15.446;2023-02-01T13:33:45;10.70;68.50
19279;DHT22;9773;47.062;15.446;2023-02-01T13:36:34;10.60;68.20
19279;DHT22;9773;47.062;15.446;2023-02-01T13:41:31;10.60;69.10
19279;DHT22;9773;47.062;15.446;2023-02-01T13:44:03;10.50;70.10
19279;DHT22;9773;47.062;15.446;2023-02-01T13:46:42;10.40;70.40
19279;DHT22;9773;47.062;15.446;2023-02-01T13:49:21;10.30;70.10
19279;DHT22;9773;47.062;15.446;2023-02-01T13:51:51;10.20;70.80
19279;DHT22;9773;47.062;15.446;2023-02-01T13:54:38;10.30;71.00
19279;DHT22;9773;47.062;15.446;2023-02-01T13:57:13;10.20;71.60
19279;DHT22;9773;47.062;15.446;2023-02-01T13:59:52;10.10;71.60
19279;DHT22;9773;47.062;15.446;2023-02-01T14:03:06;10.00;72.10
19279;DHT22;9773;47.062;15.446;2023-02-01T14:08:36;10.00;72.30
19279;DHT22;9773;47.062;15.446;2023-02-01T14:11:02;9.90;73.70
19279;DHT22;9773;47.062;15.446;2023-02-01T14:29:03;9.50;77.90
19279;DHT22;9773;47.062;15.446;2023-02-01T14:31:54;9.40;78.60
19279;DHT22;9773;47.062;15.446;2023-02-01T14:37:03;9.40;78.50
19279;DHT22;9773;47.062;15.446;2023-02-01T14:40:04;9.40;78.40
19279;DHT22;9773;47.062;15.446;2023-02-01T14:42:44;9.30;79.20
19279;DHT22;9773;47.062;15.446;2023-02-01T14:47:52;9.20;81.00
19279;DHT22;9773;47.062;15.446;2023-02-01T15:00:58;9.00;80.60
19279;DHT22;9773;47.062;15.446;2023-02-01T15:05:57;8.90;79.80
19279;DHT22;9773;47.062;15.446;2023-02-01T15:08:45;8.90;79.60
19279;DHT22;9773;47.062;15.446;2023-02-01T15:11:15;8.90;78.90
19279;DHT22;9773;47.062;15.446;2023-02-01T15:13:49;8.90;78.20
19279;DHT22;9773;47.062;15.446;2023-02-01T15:16:16;8.90;78.20
19279;DHT22;9773;47.062;15.446;2023-02-01T15:18:42;8.90;78.40
19279;DHT22;9773;47.062;15.446;2023-02-01T15:21:41;8.90;78.50
19279;DHT22;9773;47.062;15.446;2023-02-01T15:24:18;8.80;78.30
19279;DHT22;9773;47.062;15.446;2023-02-01T15:26:44;8.80;78.10
19279;DHT22;9773;47.062;15.446;2023-02-01T15:29:12;8.80;77.70
19279;DHT22;9773;47.062;15.446;2023-02-01T15:31:45;8.70;77.80
19279;DHT22;9773;47.062;15.446;2023-02-01T15:34:11;8.70;78.10
19279;DHT22;9773;47.062;15.446;2023-02-01T15:36:38;8.70;78.60
19279;DHT22;9773;47.062;15.446;2023-02-01T15:39:22;8.60;78.80
19279;DHT22;9773;47.062;15.446;2023-02-01T15:42:09;8.50;78.80
19279;DHT22;9773;47.062;15.446;2023-02-01T15:44:42;8.60;79.00
19279;DHT22;9773;47.062;15.446;2023-02-01T15:49:44;8.30;79.40
19279;DHT22;9773;47.062;15.446;2023-02-01T15:52:35;8.30;80.10
19279;DHT22;9773;47.062;15.446;2023-02-01T15:55:06;8.10;80.30
19279;DHT22;9773;47.062;15.446;2023-02-01T15:57:39;8.10;80.60
19279;DHT22;9773;47.062;15.446;2023-02-01T16:00:29;8.20;80.30
19279;DHT22;9773;47.062;15.446;2023-02-01T16:02:54;8.10;81.00
19279;DHT22;9773;47.062;15.446;2023-02-01T16:05:37;8.10;80.90
19279;DHT22;9773;47.062;15.446;2023-02-01T16:08:13;8.10;80.70
19279;DHT22;9773;47.062;15.446;2023-02-01T16:10:44;8.00;81.30
19279;DHT22;9773;47.062;15.446;2023-02-01T16:13:11;7.90;81.50
19279;DHT22;9773;47.062;15.446;2023-02-01T16:15:38;7.90;80.80
19279;DHT22;9773;47.062;15.446;2023-02-01T16:18:04;7.90;81.10
19279;DHT22;9773;47.062;15.446;2023-02-01T16:20:32;7.80;81.10
19279;DHT22;9773;47.062;15.446;2023-02-01T16:22:58;7.70;81.40
19279;DHT22;9773;47.062;15.446;2023-02-01T16:25:24;7.70;81.60
19279;DHT22;9773;47.062;15.446;2023-02-01T16:27:50;7.70;81.40
19279;DHT22;9773;47.062;15.446;2023-02-01T16:30:16;7.90;80.50
19279;DHT22;9773;47.062;15.446;2023-02-01T16:32:49;7.80;80.90
19279;DHT22;9773;47.062;15.446;2023-02-01T16:35:26;7.70;81.10
19279;DHT22;9773;47.062;15.446;2023-02-01T16:37:53;7.70;81.20
19279;DHT22;9773;47.062;15.446;2023-02-01T16:40:20;7.60;81.60
19279;DHT22;9773;47.062;15.446;2023-02-01T16:42:51;7.50;81.80
19279;DHT22;9773;47.062;15.446;2023-02-01T16:45:18;7.50;81.80
19279;DHT22;9773;47.062;15.446;2023-02-01T16:47:49;7.40;82.20
19279;DHT22;9773;47.062;15.446;2023-02-01T16:50:26;7.40;81.90
19279;DHT22;9773;47.062;15.446;2023-02-01T16:52:53;7.50;81.30
19279;DHT22;9773;47.062;15.446;2023-02-01T16:55:21;7.50;81.30
19279;DHT22;9773;47.062;15.446;2023-02-01T16:57:47;7.50;81.40
19279;DHT22;9773;47.062;15.446;2023-02-01T17:00:14;7.40;81.40
19279;DHT22;9773;47.062;15.446;2023-02-01T17:02:43;7.50;81.50
19279;DHT22;9773;47.062;15.446;2023-02-01T17:05:11;7.40;81.30
19279;DHT22;9773;47.062;15.446;2023-02-01T17:07:38;7.40;81.10
19279;DHT22;9773;47.062;15.446;2023-02-01T17:10:08;7.50;80.90
19279;DHT22;9773;47.062;15.446;2023-02-01T17:12:37;7.40;81.70
19279;DHT22;9773;47.062;15.446;2023-02-01T17:15:04;7.30;81.50
19279;DHT22;9773;47.062;15.446;2023-02-01T17:17:36;7.40;81.40
19279;DHT22;9773;47.062;15.446;2023-02-01T17:20:03;7.50;81.00
19279;DHT22;9773;47.062;15.446;2023-02-01T17:22:30;7.40;81.30
19279;DHT22;9773;47.062;15.446;2023-02-01T17:24:56;7.40;81.70
19279;DHT22;9773;47.062;15.446;2023-02-01T17:27:22;7.20;82.00
19279;DHT22;9773;47.062;15.446;2023-02-01T17:29:48;7.10;82.30
19279;DHT22;9773;47.062;15.446;2023-02-01T17:32:20;7.20;83.00
19279;DHT22;9773;47.062;15.446;2023-02-01T17:34:47;7.10;82.60
19279;DHT22;9773;47.062;15.446;2023-02-01T17:37:29;6.90;82.90
19279;DHT22;9773;47.062;15.446;2023-02-01T17:39:56;7.00;83.10
19279;DHT22;9773;47.062;15.446;2023-02-01T17:42:27;7.10;82.80
19279;DHT22;9773;47.062;15.446;2023-02-01T17:45:05;7.10;82.60
19279;DHT22;9773;47.062;15.446;2023-02-01T17:47:36;7.10;83.10
19279;DHT22;9773;47.062;15.446;2023-02-01T17:50:03;7.00;83.40
19279;DHT22;9773;47.062;15.446;2023-02-01T17:52:29;7.00;83.20
19279;DHT22;9773;47.062;15.446;2023-02-01T17:54:55;7.00;83.30
19279;DHT22;9773;47.062;15.446;2023-02-01T17:57:21;6.90;83.30
19279;DHT22;9773;47.062;15.446;2023-02-01T17:59:47;7.00;83.40
19279;DHT22;9773;47.062;15.446;2023-02-01T18:02:20;6.90;83.40
19279;DHT22;9773;47.062;15.446;2023-02-01T18:04:46;6.80;83.80
19279;DHT22;9773;47.062;15.446;2023-02-01T18:07:11;6.80;83.80
19279;DHT22;9773;47.062;15.446;2023-02-01T18:09:38;6.70;84.00
19279;DHT22;9773;47.062;15.446;2023-02-01T18:12:06;6.80;84.00
19279;DHT22;9773;47.062;15.446;2023-02-01T18:14:38;6.80;83.90
19279;DHT22;9773;47.062;15.446;2023-02-01T18:17:06;6.90;84.10
19279;DHT22;9773;47.062;15.446;2023-02-01T18:19:33;6.80;84.20
19279;DHT22;9773;47.062;15.446;2023-02-01T18:22:01;6.60;84.90
19279;DHT22;9773;47.062;15.446;2023-02-01T18:24:27;6.60;84.90
19279;DHT22;9773;47.062;15.446;2023-02-01T18:26:57;6.60;85.00
19279;DHT22;9773;47.062;15.446;2023-02-01T18:29:24;6.60;85.10
19279;DHT22;9773;47.062;15.446;2023-02-01T18:31:50;6.50;85.00